Johnstown, North Dakota
Current Conditions -  °F | °C
As of 3:58 PM on Friday 31 Oct 2014 (Local Time) from KRDR Reporting Station
Clear Clear  
Wind Chill: 31°   Ceiling: Unl
Heat Index: 39°   Visibility: 10mi
Dew Point: 19°   Wind: 14mph
Humidity: 44%   Direction: 160°SSE
Pressure: 30.44"   Gusts: NA
Location:  48.1078°N, 97.4492°W
Report Text: KRDR 312058Z AUTO 16012KT 10SM CLR 04/M07 A3044 RMK AO2 SLP328 T00401074 57028
Loading
Personal Weather Stations






























Interactive Weather Map
Tropical Storm Tracking
New forecast layout! Learn more

10-Day Weather Forecast

Advertisements
Track Severe Weather on mobile